createdAt,value
2023-05-05T00:02:34.436Z,1.85
2023-05-05T00:05:36.980Z,2.30
2023-05-05T00:08:40.106Z,2.10
2023-05-05T00:11:42.473Z,2.17
2023-05-05T00:14:44.854Z,2.10
2023-05-05T00:17:47.531Z,2.03
2023-05-05T00:20:50.117Z,2.35
2023-05-05T00:23:52.540Z,2.15
2023-05-05T00:26:54.941Z,2.00
2023-05-05T00:29:57.655Z,2.10
2023-05-05T00:33:00.333Z,2.35
2023-05-05T00:36:03.545Z,2.72
2023-05-05T00:39:06.244Z,2.38
2023-05-05T00:42:09.520Z,2.37
2023-05-05T00:45:14.336Z,2.20
2023-05-05T00:48:17.827Z,2.42
2023-05-05T00:51:26.962Z,1.85
2023-05-05T00:54:29.808Z,2.00
2023-05-05T00:57:33.236Z,1.87
2023-05-05T01:00:36.732Z,2.10
2023-05-05T01:03:41.508Z,2.10
2023-05-05T01:07:09.104Z,2.30
2023-05-05T01:10:23.914Z,2.20
2023-05-05T01:13:48.469Z,2.13
2023-05-05T01:16:59.169Z,2.23
2023-05-05T01:20:12.549Z,2.00
2023-05-05T01:23:43.672Z,2.40
2023-05-05T01:26:59.566Z,2.45
2023-05-05T01:30:42.509Z,2.40
2023-05-05T01:33:50.356Z,2.13
2023-05-05T01:37:04.753Z,2.40
2023-05-05T01:40:10.613Z,2.80
2023-05-05T01:43:17.790Z,2.60
2023-05-05T01:46:23.465Z,2.53
2023-05-05T01:49:27.240Z,2.20
2023-05-05T01:52:30.055Z,2.53
2023-05-05T01:55:33.679Z,2.97
2023-05-05T01:58:38.187Z,2.80
2023-05-05T02:01:44.771Z,2.47
2023-05-05T02:04:49.347Z,2.70
2023-05-05T02:07:57.007Z,2.40
2023-05-05T02:11:00.846Z,2.35
2023-05-05T02:14:04.862Z,3.03
2023-05-05T02:17:08.966Z,3.07
2023-05-05T02:20:14.052Z,2.70
2023-05-05T02:23:16.752Z,2.67
2023-05-05T02:26:23.038Z,3.10
2023-05-05T02:29:33.202Z,3.20
2023-05-05T02:32:53.670Z,3.50
2023-05-05T02:35:58.500Z,3.83
2023-05-05T02:39:07.352Z,3.65
2023-05-05T02:42:19.662Z,3.67
2023-05-05T02:45:26.975Z,4.28
2023-05-05T02:48:29.827Z,3.60
2023-05-05T02:51:36.204Z,3.27
2023-05-05T02:54:43.429Z,4.18
2023-05-05T02:58:04.837Z,3.78
2023-05-05T03:01:38.679Z,3.53
2023-05-05T03:04:47.099Z,3.37
2023-05-05T03:08:14.079Z,3.50
2023-05-05T03:11:45.099Z,3.42
2023-05-05T03:14:51.884Z,3.33
2023-05-05T03:17:56.640Z,3.28
2023-05-05T03:21:07.914Z,3.43
2023-05-05T03:24:19.791Z,2.93
2023-05-05T03:27:30.933Z,3.60
2023-05-05T03:30:38.166Z,3.63
2023-05-05T03:33:41.414Z,3.10
2023-05-05T03:36:43.888Z,3.33
2023-05-05T03:39:48.887Z,3.17
2023-05-05T03:42:51.777Z,3.25
2023-05-05T03:45:54.558Z,3.30
2023-05-05T03:48:57.714Z,3.40
2023-05-05T03:52:02.367Z,4.10
2023-05-05T03:55:05.598Z,3.50
2023-05-05T03:58:08.182Z,3.75
2023-05-05T04:01:10.977Z,3.47
2023-05-05T04:04:13.704Z,3.08
2023-05-05T04:07:16.713Z,3.47
2023-05-05T04:10:19.671Z,3.53
2023-05-05T04:13:22.136Z,3.50
2023-05-05T04:16:24.790Z,3.58
2023-05-05T04:19:27.738Z,3.78
2023-05-05T04:22:30.332Z,3.47
2023-05-05T04:25:33.024Z,3.30
2023-05-05T04:28:36.029Z,3.00
2023-05-05T04:31:38.744Z,3.72
2023-05-05T04:34:41.640Z,3.38
2023-05-05T04:37:44.216Z,3.47
2023-05-05T04:40:46.929Z,3.60
2023-05-05T04:43:49.864Z,3.75
2023-05-05T04:46:52.485Z,4.00
2023-05-05T04:49:56.134Z,3.88
2023-05-05T04:52:58.862Z,3.80
2023-05-05T04:56:01.754Z,3.73
2023-05-05T04:59:04.877Z,3.65
2023-05-05T05:02:07.522Z,4.60
2023-05-05T05:05:10.642Z,3.72
2023-05-05T05:08:15.548Z,3.87
2023-05-05T05:11:18.170Z,4.00
2023-05-05T05:14:20.910Z,3.88
2023-05-05T05:17:25.057Z,3.80
2023-05-05T05:20:30.742Z,4.35
2023-05-05T05:23:33.405Z,3.80
2023-05-05T05:26:36.200Z,4.53
2023-05-05T05:29:39.675Z,3.70
2023-05-05T05:32:42.741Z,3.80
2023-05-05T05:35:46.098Z,4.22
2023-05-05T05:38:49.298Z,4.37
2023-05-05T05:41:52.119Z,3.70
2023-05-05T05:44:54.895Z,4.05
2023-05-05T05:47:57.359Z,3.72
2023-05-05T05:51:00.187Z,3.75
2023-05-05T05:54:03.017Z,3.70
2023-05-05T05:57:07.511Z,3.87
2023-05-05T06:00:11.174Z,3.55
2023-05-05T06:03:19.888Z,3.60
2023-05-05T06:06:22.748Z,3.90
2023-05-05T06:09:25.969Z,3.70
2023-05-05T06:12:30.501Z,3.83
2023-05-05T06:15:33.551Z,3.13
2023-05-05T06:18:38.921Z,3.95
2023-05-05T06:21:41.458Z,3.30
2023-05-05T06:24:45.167Z,4.00
2023-05-05T06:27:48.154Z,2.90
2023-05-05T06:30:50.871Z,3.60
2023-05-05T06:33:53.718Z,3.25
2023-05-05T06:36:56.173Z,2.70
2023-05-05T06:39:59.020Z,2.70
2023-05-05T06:43:01.929Z,2.70
2023-05-05T06:46:10.927Z,2.90
2023-05-05T06:49:13.655Z,2.97
2023-05-05T06:52:16.455Z,2.70
2023-05-05T06:55:19.137Z,2.67
2023-05-05T06:58:21.790Z,2.80
2023-05-05T07:01:24.229Z,2.55
2023-05-05T07:04:27.149Z,2.78
2023-05-05T07:07:29.640Z,2.47
2023-05-05T07:10:32.946Z,2.37
2023-05-05T07:13:36.471Z,2.60
2023-05-05T07:16:39.327Z,2.45
2023-05-05T07:19:41.927Z,2.58
2023-05-05T07:22:44.631Z,2.50
2023-05-05T07:25:47.287Z,2.63
2023-05-05T07:28:52.123Z,3.10
2023-05-05T07:31:55.015Z,2.50
2023-05-05T07:34:57.727Z,2.80
2023-05-05T07:38:00.867Z,2.58
2023-05-05T07:41:03.763Z,2.50
2023-05-05T07:44:07.095Z,2.80
2023-05-05T07:47:10.368Z,2.80
2023-05-05T07:50:13.298Z,2.85
2023-05-05T07:53:16.041Z,2.85
2023-05-05T07:56:19.314Z,2.70
2023-05-05T07:59:23.043Z,3.00
2023-05-05T08:02:25.774Z,2.90
2023-05-05T08:05:28.523Z,2.60
2023-05-05T08:08:31.540Z,2.88
2023-05-05T08:11:34.091Z,2.70
2023-05-05T08:14:36.647Z,3.00
2023-05-05T08:17:46.847Z,3.25
2023-05-05T08:20:49.359Z,2.67
2023-05-05T08:23:51.774Z,2.85
2023-05-05T08:26:55.641Z,2.90
2023-05-05T08:29:58.676Z,3.07
2023-05-05T08:33:01.575Z,2.97
2023-05-05T08:36:05.424Z,2.75
2023-05-05T08:39:07.905Z,3.17
2023-05-05T08:42:11.125Z,2.73
2023-05-05T08:45:13.763Z,3.27
2023-05-05T08:48:20.395Z,3.10
2023-05-05T08:51:28.338Z,3.30
2023-05-05T08:54:35.297Z,3.10
2023-05-05T08:57:58.386Z,3.20
2023-05-05T09:01:01.808Z,2.93
2023-05-05T09:04:05.214Z,3.05
2023-05-05T09:07:09.043Z,3.20
2023-05-05T09:10:12.120Z,3.28
2023-05-05T09:13:17.012Z,2.90
2023-05-05T09:16:19.686Z,2.90
2023-05-05T09:19:22.186Z,3.20
2023-05-05T09:22:34.650Z,3.53
2023-05-05T09:25:38.269Z,3.10
2023-05-05T09:28:51.712Z,3.20
2023-05-05T09:32:08.668Z,3.20
2023-05-05T09:35:11.834Z,3.50
2023-05-05T09:38:15.136Z,3.08
2023-05-05T09:41:37.129Z,3.22
2023-05-05T09:44:40.790Z,3.20
2023-05-05T09:47:46.390Z,3.10
2023-05-05T09:50:48.939Z,3.20
2023-05-05T09:53:51.430Z,3.35
2023-05-05T09:56:57.565Z,3.30
2023-05-05T10:00:02.107Z,3.40
2023-05-05T10:03:09.606Z,3.30
2023-05-05T10:06:12.101Z,2.95
2023-05-05T10:09:15.501Z,3.28
2023-05-05T10:12:18.369Z,3.42
2023-05-05T10:15:22.319Z,3.00
2023-05-05T10:18:32.013Z,3.17
2023-05-05T10:21:39.813Z,3.47
2023-05-05T10:24:50.868Z,2.97
2023-05-05T10:27:56.783Z,3.05
2023-05-05T10:31:02.173Z,3.40
2023-05-05T10:34:09.059Z,3.20
2023-05-05T10:37:11.727Z,2.95
2023-05-05T10:40:15.357Z,3.33
2023-05-05T10:43:18.256Z,2.90
2023-05-05T10:46:22.335Z,3.50
2023-05-05T10:49:36.963Z,3.00
2023-05-05T10:52:48.539Z,2.75
2023-05-05T10:56:03.053Z,2.40
2023-05-05T10:59:37.522Z,2.30
2023-05-05T11:02:40.470Z,2.60
2023-05-05T11:06:09.549Z,2.63
2023-05-05T11:09:27.971Z,2.33
2023-05-05T11:12:32.502Z,2.50
2023-05-05T11:15:37.815Z,2.53
2023-05-05T11:18:44.675Z,2.40
2023-05-05T11:22:02.307Z,2.70
2023-05-05T11:25:42.184Z,2.50
2023-05-05T11:29:04.948Z,2.40
2023-05-05T11:32:12.431Z,2.80
2023-05-05T11:35:15.591Z,3.30
2023-05-05T11:38:19.685Z,2.57
2023-05-05T11:41:44.089Z,2.65
2023-05-05T11:44:46.639Z,2.50
2023-05-05T11:47:49.110Z,2.80
2023-05-05T11:50:51.890Z,2.53
2023-05-05T11:53:54.487Z,2.30
2023-05-05T11:57:00.981Z,2.42
2023-05-05T12:00:08.511Z,2.38
2023-05-05T12:03:11.759Z,2.33
2023-05-05T12:06:14.379Z,3.57
2023-05-05T12:09:18.335Z,3.40
2023-05-05T12:12:21.836Z,3.25
2023-05-05T12:15:33.568Z,3.25
2023-05-05T12:18:36.629Z,2.90
2023-05-05T12:21:39.352Z,3.30
2023-05-05T12:24:41.867Z,3.57
2023-05-05T12:27:52.051Z,3.22
2023-05-05T12:30:59.072Z,3.17
2023-05-05T12:34:03.897Z,2.92
2023-05-05T12:37:06.890Z,2.93
2023-05-05T12:40:42.340Z,2.70
2023-05-05T12:43:44.841Z,2.60
2023-05-05T12:46:48.646Z,2.90
2023-05-05T12:49:52.138Z,3.13
2023-05-05T12:52:54.602Z,2.80
2023-05-05T12:55:57.094Z,2.90
2023-05-05T12:59:01.636Z,2.63
2023-05-05T13:02:06.006Z,3.00
2023-05-05T13:05:09.161Z,3.17
2023-05-05T13:08:11.839Z,2.93
2023-05-05T13:11:14.335Z,2.77
2023-05-05T13:14:16.778Z,2.72
2023-05-05T13:17:19.676Z,3.10
2023-05-05T13:20:22.094Z,3.05
2023-05-05T13:23:25.875Z,2.77
2023-05-05T13:26:28.714Z,2.93
2023-05-05T13:29:31.940Z,2.95
2023-05-05T13:32:34.471Z,2.88
2023-05-05T13:35:37.055Z,2.30
2023-05-05T13:38:39.784Z,2.50
2023-05-05T13:41:42.347Z,3.00
2023-05-05T13:44:44.847Z,2.42
2023-05-05T13:47:48.105Z,2.05
2023-05-05T13:50:50.988Z,2.30
2023-05-05T13:53:54.005Z,1.97
2023-05-05T13:56:56.484Z,2.20
2023-05-05T13:59:58.953Z,2.50
2023-05-05T14:03:01.852Z,2.25
2023-05-05T14:06:04.609Z,2.33
2023-05-05T14:09:08.038Z,2.20
2023-05-05T14:12:10.683Z,2.57
2023-05-05T14:15:13.649Z,2.72
2023-05-05T14:18:16.633Z,2.40
2023-05-05T14:21:19.223Z,2.90
2023-05-05T14:24:21.645Z,2.30
2023-05-05T14:27:24.149Z,2.13
2023-05-05T14:30:26.673Z,2.20
2023-05-05T14:33:29.334Z,2.47
2023-05-05T14:36:31.883Z,2.45
2023-05-05T14:39:34.406Z,2.20
2023-05-05T14:42:37.809Z,2.20
2023-05-05T14:45:40.538Z,2.10
2023-05-05T14:48:43.562Z,2.17
2023-05-05T14:51:46.357Z,2.10
2023-05-05T14:54:49.511Z,2.03
2023-05-05T14:57:52.286Z,2.20
2023-05-05T15:00:55.307Z,2.10
2023-05-05T15:03:58.647Z,2.58
2023-05-05T15:07:01.594Z,2.10
2023-05-05T15:10:04.879Z,2.03
2023-05-05T15:13:07.743Z,1.97
2023-05-05T15:16:10.743Z,2.20
2023-05-05T15:19:13.200Z,2.10
2023-05-05T15:22:15.829Z,2.20
2023-05-05T15:25:19.361Z,2.40
2023-05-05T15:28:21.851Z,2.10
2023-05-05T15:31:24.834Z,2.30
2023-05-05T15:34:27.348Z,2.30
2023-05-05T15:37:29.925Z,2.13
2023-05-05T15:40:32.638Z,2.10
2023-05-05T15:43:36.108Z,2.30
2023-05-05T15:46:39.292Z,2.50
2023-05-05T15:49:41.988Z,2.20
2023-05-05T15:52:44.529Z,2.03
2023-05-05T15:55:47.218Z,2.40
2023-05-05T15:58:51.340Z,2.40
2023-05-05T16:02:08.831Z,2.30
2023-05-05T16:05:24.816Z,2.00
2023-05-05T16:08:27.743Z,2.60
2023-05-05T16:11:30.938Z,2.60
2023-05-05T16:14:33.425Z,2.67
2023-05-05T16:17:36.015Z,2.53
2023-05-05T16:20:38.582Z,2.30
2023-05-05T16:23:41.416Z,2.10
2023-05-05T16:26:44.229Z,2.20
2023-05-05T16:29:46.928Z,2.13
2023-05-05T16:32:51.733Z,2.40
2023-05-05T16:35:54.330Z,2.45
2023-05-05T16:38:57.431Z,2.20
2023-05-05T16:42:06.949Z,2.50
2023-05-05T16:45:10.519Z,2.00
2023-05-05T16:48:14.688Z,2.30
2023-05-05T16:51:17.237Z,2.13
2023-05-05T16:54:20.409Z,1.90
2023-05-05T16:57:23.243Z,2.20
2023-05-05T17:00:25.722Z,2.23
2023-05-05T17:03:28.367Z,2.00
2023-05-05T17:06:33.623Z,2.13
2023-05-05T17:09:36.118Z,2.10
2023-05-05T17:12:38.815Z,2.20
2023-05-05T17:15:41.768Z,2.33
2023-05-05T17:18:44.289Z,2.30
2023-05-05T17:21:46.835Z,2.60
2023-05-05T17:24:49.490Z,2.20
2023-05-05T17:27:52.752Z,2.23
2023-05-05T17:30:55.382Z,2.30
2023-05-05T17:33:57.889Z,2.38
2023-05-05T17:37:00.509Z,2.72
2023-05-05T17:40:03.773Z,2.22
2023-05-05T17:43:06.825Z,3.10
2023-05-05T17:46:09.379Z,2.50
2023-05-05T17:49:12.503Z,2.47
2023-05-05T17:52:15.369Z,2.60
2023-05-05T17:55:18.130Z,2.40
2023-05-05T17:58:20.549Z,2.53
2023-05-05T18:01:24.823Z,2.60
2023-05-05T18:04:27.443Z,2.53
2023-05-05T18:07:30.014Z,2.83
2023-05-05T18:10:32.521Z,2.80
2023-05-05T18:13:35.211Z,2.90
2023-05-05T18:16:37.713Z,2.70
2023-05-05T18:19:45.660Z,2.95
2023-05-05T18:22:50.069Z,2.70
2023-05-05T18:25:52.642Z,2.97
2023-05-05T18:28:55.185Z,3.23
2023-05-05T18:31:57.694Z,2.70
2023-05-05T18:35:00.175Z,3.38
2023-05-05T18:38:03.728Z,3.72
2023-05-05T18:41:06.716Z,3.53
2023-05-05T18:44:10.525Z,3.47
2023-05-05T18:47:12.968Z,3.53
2023-05-05T18:50:15.729Z,3.20
2023-05-05T18:53:18.226Z,3.35
2023-05-05T18:56:21.667Z,3.42
2023-05-05T18:59:24.450Z,3.47
2023-05-05T19:02:27.396Z,3.60
2023-05-05T19:05:29.959Z,3.85
2023-05-05T19:08:32.738Z,3.60
2023-05-05T19:11:35.365Z,3.60
2023-05-05T19:14:37.845Z,3.30
2023-05-05T19:17:41.076Z,3.80
2023-05-05T19:20:43.705Z,3.63
2023-05-05T19:23:46.251Z,3.40
2023-05-05T19:26:48.893Z,3.83
2023-05-05T19:29:52.707Z,4.03
2023-05-05T19:32:55.913Z,4.03
2023-05-05T19:35:58.775Z,4.55
2023-05-05T19:39:02.380Z,4.53
2023-05-05T19:42:05.273Z,4.60
2023-05-05T19:45:08.143Z,4.30
2023-05-05T19:48:11.085Z,4.40
2023-05-05T19:51:13.754Z,4.18
2023-05-05T19:54:16.591Z,5.20
2023-05-05T19:57:19.073Z,4.88
2023-05-05T20:00:21.692Z,4.37
2023-05-05T20:03:24.399Z,4.03
2023-05-05T20:06:27.174Z,4.28
2023-05-05T20:09:30.210Z,3.95
2023-05-05T20:12:32.676Z,3.42
2023-05-05T20:15:35.286Z,3.87
2023-05-05T20:18:38.457Z,3.90
2023-05-05T20:21:41.226Z,4.03
2023-05-05T20:24:43.668Z,3.90
2023-05-05T20:27:46.443Z,3.78
2023-05-05T20:30:49.218Z,3.77
2023-05-05T20:33:52.307Z,3.60
2023-05-05T20:36:54.792Z,3.70
2023-05-05T20:39:58.283Z,3.47
2023-05-05T20:43:00.796Z,3.75
2023-05-05T20:46:03.335Z,3.83
2023-05-05T20:49:06.246Z,4.00
2023-05-05T20:52:08.790Z,4.45
2023-05-05T20:55:11.321Z,4.07
2023-05-05T20:58:13.776Z,3.83
2023-05-05T21:01:16.382Z,3.73
2023-05-05T21:04:19.049Z,4.20
2023-05-05T21:07:21.543Z,4.57
2023-05-05T21:10:24.104Z,4.50
2023-05-05T21:13:26.562Z,5.15
2023-05-05T21:16:29.015Z,5.97
2023-05-05T21:19:31.764Z,5.70
2023-05-05T21:22:34.288Z,5.68
2023-05-05T21:25:37.554Z,5.57
2023-05-05T21:28:40.023Z,4.80
2023-05-05T21:31:42.530Z,5.73
2023-05-05T21:34:45.610Z,5.00
2023-05-05T21:37:48.910Z,5.57
2023-05-05T21:40:57.461Z,5.30
2023-05-05T21:44:00.235Z,5.47
2023-05-05T21:47:02.716Z,4.80
2023-05-05T21:50:05.582Z,5.00
2023-05-05T21:53:08.018Z,4.93
2023-05-05T21:56:10.528Z,5.22
2023-05-05T21:59:14.336Z,5.20
2023-05-05T22:02:17.914Z,5.50
2023-05-05T22:05:20.764Z,5.43
2023-05-05T22:08:23.263Z,5.35
2023-05-05T22:11:25.764Z,5.07
2023-05-05T22:14:28.237Z,5.47
2023-05-05T22:17:30.721Z,5.97
2023-05-05T22:20:33.337Z,5.30
2023-05-05T22:23:37.181Z,5.85
2023-05-05T22:26:43.428Z,6.03
2023-05-05T22:29:46.685Z,6.10
2023-05-05T22:32:49.181Z,6.57
2023-05-05T22:35:52.069Z,5.80
2023-05-05T22:38:54.972Z,6.57
2023-05-05T22:41:58.093Z,7.20
2023-05-05T22:45:01.129Z,6.80
2023-05-05T22:48:03.818Z,6.67
2023-05-05T22:51:06.548Z,8.33
2023-05-05T22:54:09.103Z,9.55
2023-05-05T22:57:11.941Z,8.55
2023-05-05T23:00:14.655Z,8.10
2023-05-05T23:03:17.300Z,7.50
2023-05-05T23:06:20.747Z,7.27
2023-05-05T23:09:23.366Z,7.13
2023-05-05T23:12:26.179Z,6.97
2023-05-05T23:15:28.878Z,7.22
2023-05-05T23:18:31.634Z,7.20
2023-05-05T23:21:41.819Z,7.77
2023-05-05T23:24:44.693Z,7.03
2023-05-05T23:27:47.987Z,7.82
2023-05-05T23:30:50.585Z,8.23
2023-05-05T23:33:53.148Z,7.40
2023-05-05T23:36:55.966Z,8.53
2023-05-05T23:39:58.556Z,8.30
2023-05-05T23:43:01.133Z,9.10
2023-05-05T23:46:03.780Z,8.73
2023-05-05T23:49:06.509Z,9.20
2023-05-05T23:52:09.018Z,7.53
2023-05-05T23:55:11.774Z,8.10
2023-05-05T23:58:15.288Z,8.30
